createdAt,value
2023-05-04T00:00:31.550Z,75.99
2023-05-04T00:02:58.287Z,76.25
2023-05-04T00:05:24.956Z,76.11
2023-05-04T00:07:51.621Z,76.33
2023-05-04T00:10:18.391Z,76.36
2023-05-04T00:12:46.358Z,76.10
2023-05-04T00:15:13.141Z,76.32
2023-05-04T00:17:40.058Z,76.02
2023-05-04T00:20:07.464Z,76.33
2023-05-04T00:22:34.227Z,75.82
2023-05-04T00:25:00.901Z,76.21
2023-05-04T00:27:27.582Z,76.66
2023-05-04T00:29:54.249Z,76.13
2023-05-04T00:32:21.201Z,76.16
2023-05-04T00:34:48.638Z,75.99
2023-05-04T00:37:15.262Z,76.21
2023-05-04T00:39:41.878Z,76.07
2023-05-04T00:42:08.543Z,76.44
2023-05-04T00:44:35.444Z,76.69
2023-05-04T00:47:03.234Z,76.73
2023-05-04T00:49:30.053Z,77.24
2023-05-04T00:51:56.703Z,76.89
2023-05-04T00:54:23.324Z,77.33
2023-05-04T00:56:49.949Z,76.67
2023-05-04T00:59:16.563Z,77.48
2023-05-04T01:01:43.268Z,77.68
2023-05-04T01:04:10.034Z,79.06
2023-05-04T01:06:50.217Z,79.89
2023-05-04T01:09:22.904Z,79.79
2023-05-04T01:11:55.636Z,81.17
2023-05-04T01:14:22.374Z,82.13
2023-05-04T01:16:50.572Z,82.36
2023-05-04T01:19:17.219Z,82.42
2023-05-04T01:21:43.975Z,84.03
2023-05-04T01:24:10.717Z,84.63
2023-05-04T01:26:42.259Z,85.93
2023-05-04T01:29:14.232Z,85.35
2023-05-04T01:31:41.027Z,84.95
2023-05-04T01:34:07.984Z,84.78
2023-05-04T01:36:34.594Z,84.54
2023-05-04T01:39:01.257Z,83.95
2023-05-04T01:41:27.966Z,83.46
2023-05-04T01:43:54.703Z,83.15
2023-05-04T01:46:21.448Z,83.06
2023-05-04T01:48:48.169Z,83.69
2023-05-04T01:51:14.797Z,83.48
2023-05-04T01:53:41.465Z,83.63
2023-05-04T01:56:08.270Z,83.53
2023-05-04T01:58:34.951Z,84.13
2023-05-04T02:01:01.652Z,85.33
2023-05-04T02:03:28.418Z,85.47
2023-05-04T02:05:55.105Z,85.93
2023-05-04T02:08:22.149Z,85.42
2023-05-04T02:10:48.809Z,85.64
2023-05-04T02:13:15.873Z,85.88
2023-05-04T02:15:42.657Z,85.12
2023-05-04T02:18:09.413Z,84.64
2023-05-04T02:20:36.059Z,84.94
2023-05-04T02:23:02.687Z,84.39
2023-05-04T02:25:29.353Z,84.30
2023-05-04T02:27:56.039Z,84.31
2023-05-04T02:30:22.705Z,83.89
2023-05-04T02:32:49.483Z,83.51
2023-05-04T02:35:16.401Z,83.77
2023-05-04T02:37:43.040Z,83.33
2023-05-04T02:40:10.218Z,82.50
2023-05-04T02:42:36.877Z,82.38
2023-05-04T02:45:03.930Z,81.85
2023-05-04T02:47:30.734Z,81.31
2023-05-04T02:49:57.461Z,80.56
2023-05-04T02:52:24.080Z,79.80
2023-05-04T02:54:52.920Z,79.40
2023-05-04T02:57:19.789Z,79.42
2023-05-04T02:59:46.856Z,79.35
2023-05-04T03:02:13.555Z,79.33
2023-05-04T03:04:40.222Z,78.81
2023-05-04T03:07:06.865Z,78.76
2023-05-04T03:09:33.535Z,78.54
2023-05-04T03:12:00.172Z,78.59
2023-05-04T03:14:26.838Z,78.75
2023-05-04T03:16:53.840Z,78.47
2023-05-04T03:19:22.088Z,78.39
2023-05-04T03:21:48.788Z,78.18
2023-05-04T03:24:17.260Z,78.43
2023-05-04T03:26:44.192Z,78.44
2023-05-04T03:29:10.888Z,78.78
2023-05-04T03:31:37.601Z,78.38
2023-05-04T03:34:04.258Z,78.68
2023-05-04T03:36:30.896Z,79.01
2023-05-04T03:38:57.582Z,79.02
2023-05-04T03:41:24.201Z,79.40
2023-05-04T03:43:51.307Z,79.64
2023-05-04T03:46:17.976Z,79.98
2023-05-04T03:48:44.687Z,79.94
2023-05-04T03:51:11.467Z,79.50
2023-05-04T03:53:38.289Z,79.65
2023-05-04T03:56:05.053Z,79.99
2023-05-04T03:58:31.686Z,79.84
2023-05-04T04:00:58.330Z,79.58
2023-05-04T04:03:25.164Z,79.16
2023-05-04T04:05:51.896Z,79.31
2023-05-04T04:08:18.628Z,79.11
2023-05-04T04:10:45.846Z,78.83
2023-05-04T04:13:12.622Z,78.63
2023-05-04T04:15:40.611Z,78.42
2023-05-04T04:18:08.354Z,78.41
2023-05-04T04:20:35.650Z,78.10
2023-05-04T04:23:02.968Z,77.89
2023-05-04T04:25:30.417Z,78.12
2023-05-04T04:27:57.177Z,78.10
2023-05-04T04:30:24.022Z,77.70
2023-05-04T04:32:51.157Z,77.72
2023-05-04T04:35:17.804Z,77.43
2023-05-04T04:37:44.495Z,77.49
2023-05-04T04:40:11.578Z,77.36
2023-05-04T04:42:38.269Z,76.99
2023-05-04T04:45:05.678Z,77.36
2023-05-04T04:47:33.042Z,76.46
2023-05-04T04:49:59.859Z,76.29
2023-05-04T04:52:26.590Z,75.92
2023-05-04T04:54:53.216Z,75.56
2023-05-04T04:57:19.951Z,75.31
2023-05-04T04:59:46.592Z,74.56
2023-05-04T05:02:13.231Z,74.04
2023-05-04T05:04:41.572Z,73.73
2023-05-04T05:07:11.076Z,71.82
2023-05-04T05:09:38.487Z,71.36
2023-05-04T05:12:05.562Z,69.96
2023-05-04T05:14:32.259Z,67.83
2023-05-04T05:16:59.262Z,63.44
2023-05-04T05:19:26.193Z,62.42
2023-05-04T05:21:53.192Z,59.20
2023-05-04T05:24:19.793Z,55.86
2023-05-04T05:26:46.392Z,52.34
2023-05-04T05:29:12.989Z,46.85
2023-05-04T05:31:39.628Z,43.01
2023-05-04T05:34:06.418Z,42.01
2023-05-04T05:36:33.532Z,39.99
2023-05-04T05:39:00.138Z,36.67
2023-05-04T05:41:26.788Z,34.45
2023-05-04T05:43:53.398Z,33.33
2023-05-04T05:46:20.267Z,33.55
2023-05-04T05:48:46.884Z,31.64
2023-05-04T05:51:13.541Z,30.38
2023-05-04T05:53:40.180Z,29.80
2023-05-04T05:56:06.959Z,28.38
2023-05-04T05:58:33.555Z,26.25
2023-05-04T06:01:00.583Z,26.21
2023-05-04T06:03:27.292Z,25.27
2023-05-04T06:05:54.199Z,25.46
2023-05-04T06:08:20.869Z,22.83
2023-05-04T06:10:48.238Z,22.54
2023-05-04T06:13:15.075Z,22.29
2023-05-04T06:15:41.765Z,20.84
2023-05-04T06:18:08.513Z,20.97
2023-05-04T06:20:35.243Z,21.06
2023-05-04T06:23:01.835Z,21.84
2023-05-04T06:25:28.439Z,21.93
2023-05-04T06:27:55.065Z,21.34
2023-05-04T06:30:24.560Z,21.21
2023-05-04T06:32:51.561Z,20.73
2023-05-04T06:35:19.102Z,19.90
2023-05-04T06:37:46.028Z,19.31
2023-05-04T06:40:13.407Z,18.95
2023-05-04T06:42:40.539Z,18.19
2023-05-04T06:45:07.637Z,18.08
2023-05-04T06:47:37.674Z,19.16
2023-05-04T06:50:11.945Z,18.71
2023-05-04T06:52:39.492Z,19.17
2023-05-04T06:55:07.310Z,19.58
2023-05-04T06:57:33.984Z,19.12
2023-05-04T07:00:00.685Z,19.20
2023-05-04T07:02:27.502Z,20.02
2023-05-04T07:04:54.813Z,20.95
2023-05-04T07:07:21.401Z,21.16
2023-05-04T07:09:48.352Z,22.04
2023-05-04T07:12:14.999Z,22.61
2023-05-04T07:14:41.611Z,21.95
2023-05-04T07:17:10.434Z,21.84
2023-05-04T07:19:37.160Z,23.41
2023-05-04T07:22:04.132Z,23.02
2023-05-04T07:24:31.385Z,24.91
2023-05-04T07:26:58.059Z,26.44
2023-05-04T07:29:24.889Z,26.58
2023-05-04T07:31:51.556Z,27.96
2023-05-04T07:34:18.513Z,28.65
2023-05-04T07:36:46.622Z,29.96
2023-05-04T07:39:13.495Z,32.17
2023-05-04T07:41:40.103Z,33.67
2023-05-04T07:44:08.584Z,35.75
2023-05-04T07:46:35.233Z,36.26
2023-05-04T07:49:03.291Z,37.76
2023-05-04T07:51:30.142Z,38.50
2023-05-04T07:53:56.834Z,40.20
2023-05-04T07:56:23.450Z,40.19
2023-05-04T07:58:50.043Z,41.44
2023-05-04T08:01:17.220Z,43.07
2023-05-04T08:03:45.299Z,42.36
2023-05-04T08:06:11.916Z,44.15
2023-05-04T08:08:38.651Z,44.48
2023-05-04T08:11:18.734Z,45.79
2023-05-04T08:13:47.142Z,45.03
2023-05-04T08:16:14.133Z,46.18
2023-05-04T08:18:40.963Z,46.24
2023-05-04T08:21:07.908Z,47.12
2023-05-04T08:23:34.705Z,47.05
2023-05-04T08:26:02.787Z,46.94
2023-05-04T08:28:31.035Z,47.32
2023-05-04T08:30:58.016Z,46.05
2023-05-04T08:33:24.650Z,46.11
2023-05-04T08:35:51.673Z,46.31
2023-05-04T08:38:18.415Z,45.82
2023-05-04T08:40:45.670Z,45.01
2023-05-04T08:43:12.472Z,45.01
2023-05-04T08:45:39.587Z,44.20
2023-05-04T08:48:07.316Z,44.10
2023-05-04T08:50:37.581Z,44.36
2023-05-04T08:53:07.495Z,46.43
2023-05-04T08:55:35.953Z,46.61
2023-05-04T08:58:10.981Z,45.60
2023-05-04T09:00:38.940Z,45.66
2023-05-04T09:03:06.030Z,45.85
2023-05-04T09:05:32.713Z,46.25
2023-05-04T09:07:59.384Z,46.11
2023-05-04T09:10:28.826Z,46.91
2023-05-04T09:12:56.321Z,46.26
2023-05-04T09:15:23.632Z,46.97
2023-05-04T09:18:01.402Z,47.13
2023-05-04T09:20:28.136Z,46.78
2023-05-04T09:23:07.910Z,47.46
2023-05-04T09:25:54.886Z,47.76
2023-05-04T09:28:33.748Z,48.38
2023-05-04T09:31:00.892Z,47.56
2023-05-04T09:33:28.213Z,46.52
2023-05-04T09:35:54.941Z,47.13
2023-05-04T09:38:28.198Z,46.44
2023-05-04T09:40:55.006Z,46.24
2023-05-04T09:43:21.943Z,46.08
2023-05-04T09:45:49.017Z,47.99
2023-05-04T09:48:20.487Z,48.41
2023-05-04T09:50:57.396Z,46.66
2023-05-04T09:53:27.363Z,46.69
2023-05-04T09:56:29.586Z,46.51
2023-05-04T09:58:58.208Z,46.85
2023-05-04T10:01:31.233Z,47.38
2023-05-04T10:03:58.368Z,47.58
2023-05-04T10:06:25.185Z,48.55
2023-05-04T10:08:52.211Z,48.47
2023-05-04T10:11:19.386Z,47.35
2023-05-04T10:13:47.088Z,47.69
2023-05-04T10:16:32.114Z,49.03
2023-05-04T10:19:20.796Z,48.84
2023-05-04T10:21:53.396Z,48.37
2023-05-04T10:24:49.332Z,48.82
2023-05-04T10:27:21.604Z,48.35
2023-05-04T10:29:49.460Z,48.96
2023-05-04T10:32:22.386Z,48.27
2023-05-04T10:34:49.187Z,48.54
2023-05-04T10:37:17.167Z,49.11
2023-05-04T10:39:56.265Z,49.03
2023-05-04T10:42:23.030Z,49.74
2023-05-04T10:44:52.451Z,49.19
2023-05-04T10:47:34.571Z,50.08
2023-05-04T10:50:05.174Z,47.66
2023-05-04T10:52:53.877Z,47.58
2023-05-04T10:55:21.863Z,48.46
2023-05-04T10:57:51.859Z,48.78
2023-05-04T11:00:19.154Z,47.78
2023-05-04T11:02:48.836Z,48.50
2023-05-04T11:05:20.463Z,47.23
2023-05-04T11:07:50.653Z,49.08
2023-05-04T11:10:24.627Z,47.69
2023-05-04T11:12:51.585Z,49.18
2023-05-04T11:15:19.112Z,48.43
2023-05-04T11:17:49.912Z,48.41
2023-05-04T11:20:23.575Z,50.05
2023-05-04T11:22:50.828Z,47.12
2023-05-04T11:25:17.558Z,46.65
2023-05-04T11:27:44.375Z,48.22
2023-05-04T11:30:11.465Z,48.35
2023-05-04T11:32:38.133Z,49.18
2023-05-04T11:35:07.958Z,47.21
2023-05-04T11:37:40.334Z,46.06
2023-05-04T11:40:11.264Z,45.66
2023-05-04T11:42:40.086Z,46.78
2023-05-04T11:45:27.597Z,47.53
2023-05-04T11:47:56.583Z,45.53
2023-05-04T11:50:23.940Z,45.58
2023-05-04T11:52:50.836Z,46.40
2023-05-04T11:55:28.098Z,44.99
2023-05-04T11:58:05.040Z,45.18
2023-05-04T12:00:39.842Z,46.53
2023-05-04T12:03:07.813Z,45.66
2023-05-04T12:05:35.072Z,44.77
2023-05-04T12:08:03.356Z,44.18
2023-05-04T12:10:31.322Z,46.99
2023-05-04T12:12:58.032Z,44.22
2023-05-04T12:15:31.898Z,43.76
2023-05-04T12:18:00.982Z,45.28
2023-05-04T12:20:29.664Z,43.17
2023-05-04T12:22:57.254Z,44.19
2023-05-04T12:25:26.966Z,44.67
2023-05-04T12:27:58.762Z,42.10
2023-05-04T12:30:25.539Z,43.72
2023-05-04T12:32:52.170Z,43.20
2023-05-04T12:35:18.814Z,42.48
2023-05-04T12:37:45.558Z,44.18
2023-05-04T12:40:27.185Z,41.41
2023-05-04T12:42:54.807Z,43.27
2023-05-04T12:45:22.713Z,43.76
2023-05-04T12:47:49.532Z,43.12
2023-05-04T12:50:16.307Z,43.88
2023-05-04T12:52:42.988Z,43.38
2023-05-04T12:55:09.833Z,45.14
2023-05-04T12:57:36.479Z,44.62
2023-05-04T13:00:04.192Z,42.05
2023-05-04T13:02:30.867Z,42.23
2023-05-04T13:04:57.534Z,44.17
2023-05-04T13:07:24.499Z,42.36
2023-05-04T13:09:51.177Z,41.01
2023-05-04T13:12:17.792Z,40.57
2023-05-04T13:14:44.604Z,41.76
2023-05-04T13:17:11.945Z,42.62
2023-05-04T13:19:38.656Z,40.54
2023-05-04T13:22:05.261Z,39.75
2023-05-04T13:24:31.894Z,42.26
2023-05-04T13:26:59.872Z,43.80
2023-05-04T13:29:27.059Z,42.80
2023-05-04T13:31:53.928Z,41.37
2023-05-04T13:34:20.757Z,42.50
2023-05-04T13:36:48.268Z,41.46
2023-05-04T13:39:15.527Z,41.06
2023-05-04T13:41:42.352Z,39.72
2023-05-04T13:44:09.071Z,38.69
2023-05-04T13:46:36.477Z,39.58
2023-05-04T13:49:03.260Z,41.21
2023-05-04T13:51:29.947Z,38.85
2023-05-04T13:53:56.528Z,38.25
2023-05-04T13:56:23.332Z,40.96
2023-05-04T13:58:50.096Z,41.56
2023-05-04T14:01:16.730Z,41.84
2023-05-04T14:03:43.521Z,39.57
2023-05-04T14:06:10.289Z,39.34
2023-05-04T14:08:36.998Z,37.96
2023-05-04T14:11:03.687Z,39.41
2023-05-04T14:13:30.327Z,40.28
2023-05-04T14:15:58.454Z,38.52
2023-05-04T14:18:25.378Z,38.82
2023-05-04T14:20:52.004Z,38.39
2023-05-04T14:23:18.624Z,38.74
2023-05-04T14:25:52.258Z,38.68
2023-05-04T14:28:18.944Z,38.27
2023-05-04T14:30:45.585Z,39.96
2023-05-04T14:33:12.292Z,40.42
2023-05-04T14:35:42.875Z,37.62
2023-05-04T14:38:10.178Z,39.34
2023-05-04T14:40:36.847Z,37.94
2023-05-04T14:43:03.521Z,38.46
2023-05-04T14:45:30.235Z,38.51
2023-05-04T14:47:56.842Z,38.20
2023-05-04T14:50:23.718Z,38.79
2023-05-04T14:52:50.361Z,38.88
2023-05-04T14:55:17.050Z,38.78
2023-05-04T14:57:44.298Z,37.78
2023-05-04T15:00:12.066Z,37.77
2023-05-04T15:02:38.900Z,39.20
2023-05-04T15:05:06.404Z,38.31
2023-05-04T15:07:33.084Z,36.96
2023-05-04T15:09:59.935Z,36.74
2023-05-04T15:12:26.998Z,36.75
2023-05-04T15:14:53.779Z,35.46
2023-05-04T15:17:20.441Z,35.98
2023-05-04T15:19:47.124Z,35.55
2023-05-04T15:22:13.752Z,37.08
2023-05-04T15:24:40.502Z,37.25
2023-05-04T15:27:07.168Z,36.20
2023-05-04T15:29:33.791Z,37.43
2023-05-04T15:32:00.484Z,37.95
2023-05-04T15:34:27.181Z,37.34
2023-05-04T15:36:55.079Z,38.36
2023-05-04T15:39:21.730Z,37.70
2023-05-04T15:41:48.410Z,36.88
2023-05-04T15:44:15.319Z,37.65
2023-05-04T15:46:42.059Z,37.61
2023-05-04T15:49:09.366Z,37.46
2023-05-04T15:51:36.254Z,37.14
2023-05-04T15:54:03.375Z,37.98
2023-05-04T15:56:30.215Z,36.91
2023-05-04T15:58:56.880Z,37.56
2023-05-04T16:01:23.604Z,37.92
2023-05-04T16:03:50.322Z,37.33
2023-05-04T16:06:17.621Z,37.30
2023-05-04T16:08:44.287Z,36.93
2023-05-04T16:11:10.987Z,36.81
2023-05-04T16:13:39.245Z,37.90
2023-05-04T16:16:06.548Z,37.10
2023-05-04T16:18:33.177Z,37.00
2023-05-04T16:20:59.943Z,36.41
2023-05-04T16:23:26.847Z,37.52
2023-05-04T16:25:53.467Z,37.80
2023-05-04T16:28:20.111Z,37.63
2023-05-04T16:30:49.483Z,36.51
2023-05-04T16:33:16.129Z,37.29
2023-05-04T16:35:42.795Z,36.18
2023-05-04T16:38:11.189Z,37.48
2023-05-04T16:40:37.789Z,37.49
2023-05-04T16:43:05.553Z,36.80
2023-05-04T16:45:32.995Z,37.32
2023-05-04T16:47:59.778Z,38.36
2023-05-04T16:50:26.595Z,37.49
2023-05-04T16:52:53.553Z,37.44
2023-05-04T16:55:20.677Z,37.37
2023-05-04T16:57:47.651Z,37.71
2023-05-04T17:00:14.814Z,37.27
2023-05-04T17:02:41.646Z,36.89
2023-05-04T17:05:10.449Z,37.40
2023-05-04T17:07:39.843Z,37.32
2023-05-04T17:10:08.068Z,37.50
2023-05-04T17:12:35.086Z,38.04
2023-05-04T17:15:02.212Z,37.63
2023-05-04T17:17:28.959Z,37.88
2023-05-04T17:19:55.729Z,38.27
2023-05-04T17:22:23.525Z,37.91
2023-05-04T17:24:50.148Z,38.72
2023-05-04T17:27:16.940Z,38.24
2023-05-04T17:29:44.140Z,38.70
2023-05-04T17:32:10.916Z,39.07
2023-05-04T17:34:37.859Z,39.90
2023-05-04T17:37:04.628Z,40.00
2023-05-04T17:39:31.808Z,40.19
2023-05-04T17:41:58.947Z,39.83
2023-05-04T17:44:26.334Z,40.39
2023-05-04T17:46:53.033Z,40.89
2023-05-04T17:49:19.829Z,41.75
2023-05-04T17:51:49.174Z,41.39
2023-05-04T17:54:16.558Z,43.08
2023-05-04T17:56:43.265Z,42.62
2023-05-04T17:59:10.054Z,41.97
2023-05-04T18:01:36.713Z,42.62
2023-05-04T18:04:04.229Z,43.26
2023-05-04T18:06:34.166Z,44.43
2023-05-04T18:09:01.081Z,45.50
2023-05-04T18:11:27.841Z,46.97
2023-05-04T18:13:56.595Z,46.82
2023-05-04T18:16:26.991Z,47.14
2023-05-04T18:18:53.755Z,47.07
2023-05-04T18:21:20.413Z,47.61
2023-05-04T18:23:47.047Z,48.65
2023-05-04T18:26:22.294Z,48.84
2023-05-04T18:28:49.228Z,47.27
2023-05-04T18:31:16.096Z,47.35
2023-05-04T18:33:42.778Z,47.21
2023-05-04T18:36:09.478Z,46.91
2023-05-04T18:38:37.209Z,47.13
2023-05-04T18:41:04.606Z,46.89
2023-05-04T18:43:31.447Z,48.36
2023-05-04T18:45:58.198Z,48.88
2023-05-04T18:48:24.876Z,49.04
2023-05-04T18:50:56.200Z,49.24
2023-05-04T18:53:28.646Z,49.07
2023-05-04T18:56:02.856Z,48.89
2023-05-04T18:58:29.776Z,49.27
2023-05-04T19:00:56.458Z,50.06
2023-05-04T19:03:23.160Z,50.59
2023-05-04T19:05:50.181Z,49.51
2023-05-04T19:08:16.859Z,51.85
2023-05-04T19:11:22.621Z,52.96
2023-05-04T19:13:49.950Z,53.68
2023-05-04T19:16:17.173Z,53.67
2023-05-04T19:18:44.106Z,53.55
2023-05-04T19:21:10.715Z,53.66
2023-05-04T19:23:37.307Z,53.87
2023-05-04T19:26:04.320Z,53.92
2023-05-04T19:28:30.906Z,53.65
2023-05-04T19:30:57.598Z,54.25
2023-05-04T19:33:28.166Z,55.08
2023-05-04T19:36:03.518Z,54.42
2023-05-04T19:38:30.403Z,54.82
2023-05-04T19:40:57.062Z,54.73
2023-05-04T19:43:23.660Z,54.94
2023-05-04T19:45:51.567Z,55.26
2023-05-04T19:48:18.548Z,55.04
2023-05-04T19:50:45.468Z,55.17
2023-05-04T19:53:12.116Z,56.36
2023-05-04T19:55:38.824Z,56.14
2023-05-04T19:58:06.022Z,56.41
2023-05-04T20:00:32.758Z,56.62
2023-05-04T20:02:59.463Z,57.28
2023-05-04T20:05:26.163Z,57.37
2023-05-04T20:07:52.841Z,57.17
2023-05-04T20:10:19.484Z,57.37
2023-05-04T20:12:46.755Z,57.96
2023-05-04T20:15:13.488Z,57.29
2023-05-04T20:17:40.208Z,57.70
2023-05-04T20:20:07.485Z,58.46
2023-05-04T20:22:34.541Z,58.50
2023-05-04T20:25:01.676Z,58.35
2023-05-04T20:27:28.333Z,58.22
2023-05-04T20:29:55.078Z,59.28
2023-05-04T20:32:21.673Z,58.98
2023-05-04T20:34:48.367Z,59.27
2023-05-04T20:37:15.061Z,59.44
2023-05-04T20:39:41.668Z,59.61
2023-05-04T20:42:08.520Z,59.32
2023-05-04T20:44:35.230Z,59.87
2023-05-04T20:47:01.853Z,59.21
2023-05-04T20:49:28.500Z,59.79
2023-05-04T20:51:55.148Z,59.75
2023-05-04T20:54:22.322Z,59.22
2023-05-04T20:56:49.123Z,59.46
2023-05-04T20:59:19.855Z,60.40
2023-05-04T21:01:46.548Z,60.61
2023-05-04T21:04:14.971Z,60.49
2023-05-04T21:06:41.667Z,60.50
2023-05-04T21:09:08.307Z,60.92
2023-05-04T21:11:34.979Z,60.45
2023-05-04T21:14:01.824Z,60.48
2023-05-04T21:16:28.563Z,60.87
2023-05-04T21:18:55.269Z,61.07
2023-05-04T21:21:21.885Z,61.46
2023-05-04T21:23:48.531Z,61.31
2023-05-04T21:26:15.895Z,61.07
2023-05-04T21:28:42.696Z,61.44
2023-05-04T21:31:09.447Z,61.30
2023-05-04T21:33:36.262Z,62.08
2023-05-04T21:36:16.426Z,62.09
2023-05-04T21:38:43.339Z,62.00
2023-05-04T21:41:13.589Z,61.87
2023-05-04T21:43:40.631Z,62.28
2023-05-04T21:46:08.170Z,61.82
2023-05-04T21:48:37.589Z,62.10
2023-05-04T21:51:04.332Z,62.33
2023-05-04T21:53:33.547Z,62.33
2023-05-04T21:56:09.658Z,62.67
2023-05-04T21:58:40.546Z,62.24
2023-05-04T22:01:08.116Z,62.35
2023-05-04T22:03:35.220Z,62.33
2023-05-04T22:06:01.937Z,62.84
2023-05-04T22:08:28.625Z,62.71
2023-05-04T22:10:57.061Z,62.58
2023-05-04T22:13:23.834Z,62.98
2023-05-04T22:15:50.969Z,62.72
2023-05-04T22:18:17.899Z,63.49
2023-05-04T22:20:44.798Z,63.31
2023-05-04T22:23:11.582Z,63.49
2023-05-04T22:25:38.405Z,63.61
2023-05-04T22:28:05.289Z,63.95
2023-05-04T22:30:31.934Z,63.84
2023-05-04T22:32:58.822Z,63.81
2023-05-04T22:35:25.526Z,63.45
2023-05-04T22:37:52.242Z,64.01
2023-05-04T22:40:18.913Z,64.16
2023-05-04T22:42:45.715Z,64.11
2023-05-04T22:45:15.585Z,64.56
2023-05-04T22:47:42.453Z,64.51
2023-05-04T22:50:09.723Z,64.50
2023-05-04T22:52:36.981Z,64.68
2023-05-04T22:55:04.096Z,64.57
2023-05-04T22:57:30.694Z,64.70
2023-05-04T22:59:57.507Z,64.61
2023-05-04T23:02:24.435Z,64.50
2023-05-04T23:04:51.266Z,64.48
2023-05-04T23:07:17.982Z,65.09
2023-05-04T23:09:45.658Z,65.09
2023-05-04T23:12:12.938Z,65.65
2023-05-04T23:14:39.590Z,65.95
2023-05-04T23:17:06.208Z,65.59
2023-05-04T23:19:32.817Z,65.83
2023-05-04T23:21:59.466Z,66.37
2023-05-04T23:24:26.355Z,65.79
2023-05-04T23:26:53.287Z,65.70
2023-05-04T23:29:20.171Z,65.40
2023-05-04T23:31:46.883Z,65.95
2023-05-04T23:34:13.603Z,65.80
2023-05-04T23:36:40.216Z,65.67
2023-05-04T23:39:06.978Z,66.74
2023-05-04T23:41:33.610Z,66.72
2023-05-04T23:44:00.317Z,66.23
2023-05-04T23:46:26.971Z,66.76
2023-05-04T23:48:53.612Z,66.73
2023-05-04T23:51:21.425Z,66.34
2023-05-04T23:53:48.413Z,66.46
2023-05-04T23:56:15.171Z,66.89
2023-05-04T23:58:41.970Z,66.99
